Capitol Logistics 913

Operating for DHL



EGNX
East Midlands Airport
Derby, GB
ENAT
Alta Airport
Alta, NO

Activity Log

Date Flight Route Aircraft Duration
01/15/2022 CPX1004 POL UP18 ABKAT L613 TLA SAB UM89 ALOTI NELSU Z108 NONVU M609 BNN Z200 STM Z201 BDF Z205 BADIX BADI1Q B738 3h 10m

Route Details

Aircraft Information
Group: European Fleet
Types: A30F,A31F,B738
Route Data
Demand: H
Distance: 1233nm
Duration: 3h 25m
Recm'd Route: POL UP18 ABKAT L613 TLA SAB UM89 ALOTI NELSU Z108 NONVU M609 BNN Z200 STM Z201 BDF Z205 BADIX BADI1Q
Origin Wx: EGNX 270550Z 27010KT CAVOK 10/04 Q1023
Dest. Wx: ENAT 270550Z 05009KT CAVOK 08/00 Q1005 RMK WIND 700FT 03012KT
Notes:

Financial History
Total Freight: 36,960lbs
Average Load: 36,960lbs/flt
Fuel Used: 17,710lbs
Avg. Fuel Used: 17,710lbs/flt
Fuel Expense: $6,021
Avg. Fuel Expense: $6,021
Avg. Fuel Cost: $0.34/lbs
Total Gross Income: $75,435
Pilot Pay: $259
Total Expenses: $9,478
Total Revenue: $59,133
Average Revenue: $75,435.36